Groveland, New York
Current Conditions -  °F | °C
As of 8:54 PM on Sunday 21 Dec 2014 (Local Time) from KDSV Reporting Station
Overcast Overcast  
Wind Chill: 26°   Ceiling: 2400
Heat Index: 31°   Visibility: 10mi
Dew Point: 22°   Wind: 5mph
Humidity: 69%   Direction: 140°SE
Pressure: 30.31"   Gusts: NA
Location:  42.66°N, 77.77°W
Report Text: KDSV 220154Z AUTO 14004KT 10SM OVC024 M01/M06 A3031 RMK AO2 SLP283 T10061056
Loading
Personal Weather Stations






























Interactive Weather Map New forecast layout! Learn more

10-Day Weather Forecast

Advertisements
Track Severe Weather on mobile